SBPG/PNG METAR and TAF weather

Enter ICAO airport designator
Station Type Date Time Source
SBPG METAR 2021/05/13 20:00 UTC NOAA

SBPG 132000Z 08005KT 9999 SCT017 BKN035 17/12 Q1022


Station Type Date Time Source
SBPG Decoded METAR 2021/05/13 20:00 UTC NOAA

Paranagua, Brazil (SBPG) 25-31S 048-31W
May 13, 2021 - 04:00 PM EDT / 2021.05.13 2000 UTC
Wind: from the E (080 degrees) at 6 MPH (5 KT):0
Visibility: greater than 7 mile(s):0
Sky conditions: mostly cloudy
Temperature: 62 F (17 C)
Dew Point: 53 F (12 C)
Relative Humidity: 72%
Pressure (altimeter): 30.18 in. Hg (1022 hPa)
ob: SBPG 132000Z 08005KT 9999 SCT017 BKN035 17/12 Q1022
cycle: 20

Station Type Date Time Source
SBPG TAF UTC NOAA

Error!

Example: see airport list